Terminal Aerodrome Forecast
Issued by NWS

Home | Current Version | Previous Version | Text Only | Print | Product List | Glossary On
Versions: 1 2 3 4 5 6 7 8 9 10 11 12 13 14 15 16 17 18 19 20 21 22 23
948
FTUS43 KLSX 300520
TAFUIN
TAF
KUIN 300520Z 3006/3106 VRB03KT P6SM FEW250
     FM300800 31004KT 3SM BR SCT009 SCT250
      TEMPO 3010/3012 2SM BR
     FM301300 31006KT P6SM BKN035
     FM302000 35004KT P6SM SCT040=

USA.gov is the U.S. government's official web portal to all federal, state and local government web resources and services.